sensor_id;sensor_type;location;lat;lon;timestamp;pressure;altitude;pressure_sealevel;temperature;humidity
75895;BME280;64573;50.328;15.014;2022-11-02T00:00:24;99417.63;;;8.52;100.00
75895;BME280;64573;50.328;15.014;2022-11-02T00:02:49;99410.44;;;8.52;100.00
75895;BME280;64573;50.328;15.014;2022-11-02T00:05:15;99412.06;;;8.45;100.00
75895;BME280;64573;50.328;15.014;2022-11-02T00:07:41;99414.75;;;8.45;100.00
75895;BME280;64573;50.328;15.014;2022-11-02T00:10:07;99420.09;;;8.45;100.00
75895;BME280;64573;50.328;15.014;2022-11-02T00:12:33;99413.06;;;8.44;100.00
75895;BME280;64573;50.328;15.014;2022-11-02T00:14:58;99415.28;;;8.49;100.00
75895;BME280;64573;50.328;15.014;2022-11-02T00:17:24;99418.25;;;8.46;100.00
75895;BME280;64573;50.328;15.014;2022-11-02T00:19:50;99415.56;;;8.46;100.00
75895;BME280;64573;50.328;15.014;2022-11-02T00:22:15;99428.66;;;8.49;100.00
75895;BME280;64573;50.328;15.014;2022-11-02T00:24:41;99426.97;;;8.48;100.00
75895;BME280;64573;50.328;15.014;2022-11-02T00:27:06;99427.81;;;8.48;100.00
75895;BME280;64573;50.328;15.014;2022-11-02T00:29:33;99437.66;;;8.48;100.00
75895;BME280;64573;50.328;15.014;2022-11-02T00:31:58;99425.28;;;8.47;100.00
75895;BME280;64573;50.328;15.014;2022-11-02T00:34:24;99428.94;;;8.46;100.00
75895;BME280;64573;50.328;15.014;2022-11-02T00:36:50;99433.28;;;8.47;100.00
75895;BME280;64573;50.328;15.014;2022-11-02T00:39:15;99429.66;;;8.48;100.00
75895;BME280;64573;50.328;15.014;2022-11-02T00:41:40;99433.16;;;8.48;100.00
75895;BME280;64573;50.328;15.014;2022-11-02T00:44:07;99427.28;;;8.45;100.00
75895;BME280;64573;50.328;15.014;2022-11-02T00:46:32;99421.91;;;8.45;100.00
75895;BME280;64573;50.328;15.014;2022-11-02T00:48:57;99434.16;;;8.47;100.00
75895;BME280;64573;50.328;15.014;2022-11-02T00:51:23;99438.78;;;8.45;100.00
75895;BME280;64573;50.328;15.014;2022-11-02T00:53:48;99432.78;;;8.43;100.00
75895;BME280;64573;50.328;15.014;2022-11-02T00:56:13;99440.97;;;8.42;100.00
75895;BME280;64573;50.328;15.014;2022-11-02T00:58:39;99439.78;;;8.44;100.00
75895;BME280;64573;50.328;15.014;2022-11-02T01:01:05;99438.97;;;8.44;100.00
75895;BME280;64573;50.328;15.014;2022-11-02T01:03:31;99443.47;;;8.43;100.00
75895;BME280;64573;50.328;15.014;2022-11-02T01:05:56;99437.78;;;8.46;100.00
75895;BME280;64573;50.328;15.014;2022-11-02T01:08:22;99450.50;;;8.44;100.00
75895;BME280;64573;50.328;15.014;2022-11-02T01:10:47;99439.97;;;8.43;100.00
75895;BME280;64573;50.328;15.014;2022-11-02T01:13:13;99441.97;;;8.41;100.00
75895;BME280;64573;50.328;15.014;2022-11-02T01:15:38;99439.13;;;8.42;100.00
75895;BME280;64573;50.328;15.014;2022-11-02T01:18:04;99439.28;;;8.41;100.00
75895;BME280;64573;50.328;15.014;2022-11-02T01:20:30;99440.97;;;8.42;100.00
75895;BME280;64573;50.328;15.014;2022-11-02T01:22:56;99437.44;;;8.41;100.00
75895;BME280;64573;50.328;15.014;2022-11-02T01:25:22;99435.44;;;8.43;100.00
75895;BME280;64573;50.328;15.014;2022-11-02T01:27:47;99436.44;;;8.42;100.00
75895;BME280;64573;50.328;15.014;2022-11-02T01:30:13;99431.78;;;8.44;100.00
75895;BME280;64573;50.328;15.014;2022-11-02T01:32:38;99436.97;;;8.46;100.00
75895;BME280;64573;50.328;15.014;2022-11-02T01:35:04;99426.13;;;8.47;100.00
75895;BME280;64573;50.328;15.014;2022-11-02T01:37:29;99426.97;;;8.48;100.00
75895;BME280;64573;50.328;15.014;2022-11-02T01:39:55;99429.94;;;8.45;100.00
75895;BME280;64573;50.328;15.014;2022-11-02T01:42:25;99422.47;;;8.48;100.00
75895;BME280;64573;50.328;15.014;2022-11-02T01:44:52;99426.13;;;8.47;100.00
75895;BME280;64573;50.328;15.014;2022-11-02T01:47:26;99428.81;;;8.47;100.00
75895;BME280;64573;50.328;15.014;2022-11-02T01:50:00;99419.91;;;8.47;100.00
75895;BME280;64573;50.328;15.014;2022-11-02T01:52:37;99424.13;;;8.49;100.00
75895;BME280;64573;50.328;15.014;2022-11-02T01:57:39;99415.97;;;8.51;100.00
75895;BME280;64573;50.328;15.014;2022-11-02T02:00:11;99416.13;;;8.49;100.00
75895;BME280;64573;50.328;15.014;2022-11-02T02:02:42;99422.13;;;8.51;100.00
75895;BME280;64573;50.328;15.014;2022-11-02T02:05:11;99415.13;;;8.50;100.00
75895;BME280;64573;50.328;15.014;2022-11-02T02:10:04;99422.81;;;8.53;100.00
75895;BME280;64573;50.328;15.014;2022-11-02T02:12:30;99424.34;;;8.56;100.00
75895;BME280;64573;50.328;15.014;2022-11-02T02:14:57;99430.38;;;8.58;100.00
75895;BME280;64573;50.328;15.014;2022-11-02T02:20:10;99425.84;;;8.59;100.00
75895;BME280;64573;50.328;15.014;2022-11-02T02:33:25;99437.22;;;8.61;100.00
75895;BME280;64573;50.328;15.014;2022-11-02T02:36:09;99427.69;;;8.58;100.00
75895;BME280;64573;50.328;15.014;2022-11-02T02:38:44;99432.72;;;8.61;100.00
75895;BME280;64573;50.328;15.014;2022-11-02T02:46:14;99427.22;;;8.63;100.00
75895;BME280;64573;50.328;15.014;2022-11-02T02:48:44;99435.94;;;8.65;100.00
75895;BME280;64573;50.328;15.014;2022-11-02T02:51:17;99433.41;;;8.63;100.00
75895;BME280;64573;50.328;15.014;2022-11-02T02:53:46;99431.75;;;8.62;100.00
75895;BME280;64573;50.328;15.014;2022-11-02T02:56:14;99435.09;;;8.64;100.00
75895;BME280;64573;50.328;15.014;2022-11-02T03:01:12;99435.75;;;8.66;100.00
75895;BME280;64573;50.328;15.014;2022-11-02T03:03:40;99433.63;;;8.70;100.00
75895;BME280;64573;50.328;15.014;2022-11-02T03:08:42;99435.09;;;8.64;100.00
75895;BME280;64573;50.328;15.014;2022-11-02T03:16:14;99432.59;;;8.63;100.00
75895;BME280;64573;50.328;15.014;2022-11-02T03:24:08;99436.09;;;8.63;100.00
75895;BME280;64573;50.328;15.014;2022-11-02T03:39:35;99442.78;;;8.67;100.00
75895;BME280;64573;50.328;15.014;2022-11-02T03:42:03;99441.78;;;8.68;100.00
75895;BME280;64573;50.328;15.014;2022-11-02T03:46:57;99442.50;;;8.70;100.00
75895;BME280;64573;50.328;15.014;2022-11-02T03:49:25;99448.84;;;8.69;100.00
75895;BME280;64573;50.328;15.014;2022-11-02T03:51:54;99447.84;;;8.70;100.00
75895;BME280;64573;50.328;15.014;2022-11-02T03:56:49;99449.81;;;8.68;100.00
75895;BME280;64573;50.328;15.014;2022-11-02T03:59:15;99447.13;;;8.68;100.00
75895;BME280;64573;50.328;15.014;2022-11-02T04:01:43;99438.13;;;8.69;100.00
75895;BME280;64573;50.328;15.014;2022-11-02T04:04:11;99449.81;;;8.68;100.00
75895;BME280;64573;50.328;15.014;2022-11-02T04:06:37;99451.63;;;8.68;100.00
75895;BME280;64573;50.328;15.014;2022-11-02T04:09:03;99452.34;;;8.70;100.00
75895;BME280;64573;50.328;15.014;2022-11-02T04:11:29;99453.31;;;8.69;100.00
75895;BME280;64573;50.328;15.014;2022-11-02T04:14:07;99453.31;;;8.69;100.00
75895;BME280;64573;50.328;15.014;2022-11-02T04:16:42;99453.19;;;8.70;100.00
75895;BME280;64573;50.328;15.014;2022-11-02T04:19:10;99459.38;;;8.71;100.00
75895;BME280;64573;50.328;15.014;2022-11-02T04:21:55;99452.19;;;8.71;100.00
75895;BME280;64573;50.328;15.014;2022-11-02T04:32:02;99468.91;;;8.73;100.00
75895;BME280;64573;50.328;15.014;2022-11-02T04:34:27;99461.72;;;8.74;100.00
75895;BME280;64573;50.328;15.014;2022-11-02T04:39:24;99465.56;;;8.71;100.00
75895;BME280;64573;50.328;15.014;2022-11-02T04:41:49;99470.06;;;8.71;100.00
75895;BME280;64573;50.328;15.014;2022-11-02T04:44:15;99467.69;;;8.68;100.00
75895;BME280;64573;50.328;15.014;2022-11-02T04:46:42;99462.50;;;8.66;100.00
75895;BME280;64573;50.328;15.014;2022-11-02T04:49:08;99464.34;;;8.66;100.00
75895;BME280;64573;50.328;15.014;2022-11-02T04:51:34;99466.50;;;8.62;100.00
75895;BME280;64573;50.328;15.014;2022-11-02T04:54:00;99462.13;;;8.61;100.00
75895;BME280;64573;50.328;15.014;2022-11-02T04:56:27;99460.28;;;8.62;100.00
75895;BME280;64573;50.328;15.014;2022-11-02T04:58:57;99453.25;;;8.61;100.00
75895;BME280;64573;50.328;15.014;2022-11-02T05:01:26;99458.16;;;8.65;100.00
75895;BME280;64573;50.328;15.014;2022-11-02T05:06:23;99466.34;;;8.64;100.00
75895;BME280;64573;50.328;15.014;2022-11-02T05:08:48;99465.50;;;8.63;100.00
75895;BME280;64573;50.328;15.014;2022-11-02T05:11:13;99462.84;;;8.63;100.00
75895;BME280;64573;50.328;15.014;2022-11-02T05:13:40;99469.47;;;8.59;100.00
75895;BME280;64573;50.328;15.014;2022-11-02T05:18:31;99468.63;;;8.59;100.00
75895;BME280;64573;50.328;15.014;2022-11-02T05:20:59;99472.09;;;8.51;100.00
75895;BME280;64573;50.328;15.014;2022-11-02T05:23:25;99479.59;;;8.47;100.00
75895;BME280;64573;50.328;15.014;2022-11-02T05:26:02;99476.53;;;8.42;100.00
75895;BME280;64573;50.328;15.014;2022-11-02T05:28:29;99482.03;;;8.41;100.00
75895;BME280;64573;50.328;15.014;2022-11-02T05:33:21;99481.22;;;8.40;100.00
75895;BME280;64573;50.328;15.014;2022-11-02T05:35:47;99476.84;;;8.39;100.00
75895;BME280;64573;50.328;15.014;2022-11-02T05:40:37;99480.22;;;8.41;100.00
75895;BME280;64573;50.328;15.014;2022-11-02T05:43:06;99488.22;;;8.41;100.00
75895;BME280;64573;50.328;15.014;2022-11-02T05:45:31;99484.84;;;8.39;100.00
75895;BME280;64573;50.328;15.014;2022-11-02T05:47:59;99488.53;;;8.38;100.00
75895;BME280;64573;50.328;15.014;2022-11-02T05:50:25;99484.47;;;8.34;100.00
75895;BME280;64573;50.328;15.014;2022-11-02T05:52:51;99485.31;;;8.35;100.00
75895;BME280;64573;50.328;15.014;2022-11-02T05:55:17;99482.63;;;8.35;100.00
75895;BME280;64573;50.328;15.014;2022-11-02T05:57:42;99470.41;;;8.32;100.00
75895;BME280;64573;50.328;15.014;2022-11-02T06:00:08;99463.03;;;8.26;100.00
75895;BME280;64573;50.328;15.014;2022-11-02T06:02:34;99463.63;;;8.20;100.00
75895;BME280;64573;50.328;15.014;2022-11-02T06:04:59;99461.56;;;8.14;100.00
75895;BME280;64573;50.328;15.014;2022-11-02T06:07:25;99469.28;;;8.17;100.00
75895;BME280;64573;50.328;15.014;2022-11-02T06:09:50;99465.59;;;8.18;100.00
75895;BME280;64573;50.328;15.014;2022-11-02T06:12:15;99464.47;;;8.20;100.00
75895;BME280;64573;50.328;15.014;2022-11-02T06:14:41;99464.47;;;8.20;100.00
75895;BME280;64573;50.328;15.014;2022-11-02T06:17:06;99469.09;;;8.18;100.00
75895;BME280;64573;50.328;15.014;2022-11-02T06:19:31;99470.09;;;8.17;100.00
75895;BME280;64573;50.328;15.014;2022-11-02T06:21:57;99482.63;;;8.17;100.00
75895;BME280;64573;50.328;15.014;2022-11-02T06:24:22;99480.66;;;8.19;100.00
75895;BME280;64573;50.328;15.014;2022-11-02T06:29:17;99488.59;;;8.28;100.00
75895;BME280;64573;50.328;15.014;2022-11-02T06:34:07;99492.34;;;8.36;100.00
75895;BME280;64573;50.328;15.014;2022-11-02T06:36:33;99493.41;;;8.43;100.00
75895;BME280;64573;50.328;15.014;2022-11-02T06:38:58;99494.41;;;8.42;100.00
75895;BME280;64573;50.328;15.014;2022-11-02T06:41:23;99492.88;;;8.39;100.00
75895;BME280;64573;50.328;15.014;2022-11-02T06:43:49;99494.88;;;8.37;100.00
75895;BME280;64573;50.328;15.014;2022-11-02T06:46:14;99491.34;;;8.37;100.00
75895;BME280;64573;50.328;15.014;2022-11-02T06:48:39;99488.69;;;8.37;100.00
75895;BME280;64573;50.328;15.014;2022-11-02T06:51:05;99493.31;;;8.35;100.00
75895;BME280;64573;50.328;15.014;2022-11-02T06:53:31;99497.81;;;8.34;100.00
75895;BME280;64573;50.328;15.014;2022-11-02T06:55:58;99506.84;;;8.33;100.00
75895;BME280;64573;50.328;15.014;2022-11-02T06:58:24;99498.44;;;8.28;100.00
75895;BME280;64573;50.328;15.014;2022-11-02T07:08:09;99510.13;;;8.45;100.00
75895;BME280;64573;50.328;15.014;2022-11-02T07:10:35;99513.97;;;8.42;100.00
75895;BME280;64573;50.328;15.014;2022-11-02T07:13:00;99521.16;;;8.42;100.00
75895;BME280;64573;50.328;15.014;2022-11-02T07:15:26;99527.38;;;8.50;100.00
75895;BME280;64573;50.328;15.014;2022-11-02T07:17:53;99530.00;;;8.42;100.00
75895;BME280;64573;50.328;15.014;2022-11-02T07:20:18;99523.03;;;8.49;100.00
75895;BME280;64573;50.328;15.014;2022-11-02T07:22:56;99526.94;;;8.55;100.00
75895;BME280;64573;50.328;15.014;2022-11-02T07:25:22;99533.03;;;8.65;100.00
75895;BME280;64573;50.328;15.014;2022-11-02T07:27:47;99529.63;;;8.81;100.00
75895;BME280;64573;50.328;15.014;2022-11-02T07:30:13;99543.47;;;8.76;100.00
75895;BME280;64573;50.328;15.014;2022-11-02T07:32:42;99533.28;;;8.80;100.00
75895;BME280;64573;50.328;15.014;2022-11-02T07:35:09;99542.75;;;8.92;100.00
75895;BME280;64573;50.328;15.014;2022-11-02T07:37:35;99544.16;;;9.04;100.00
75895;BME280;64573;50.328;15.014;2022-11-02T07:40:01;99541.94;;;9.26;100.00
75895;BME280;64573;50.328;15.014;2022-11-02T07:42:27;99538.91;;;9.21;100.00
75895;BME280;64573;50.328;15.014;2022-11-02T07:44:52;99547.53;;;9.40;100.00
75895;BME280;64573;50.328;15.014;2022-11-02T07:47:17;99546.84;;;9.38;100.00
75895;BME280;64573;50.328;15.014;2022-11-02T07:49:43;99545.22;;;9.46;100.00
75895;BME280;64573;50.328;15.014;2022-11-02T07:52:08;99536.28;;;9.29;100.00
75895;BME280;64573;50.328;15.014;2022-11-02T07:54:34;99533.16;;;9.07;99.72
75895;BME280;64573;50.328;15.014;2022-11-02T07:56:59;99533.19;;;9.16;99.70
75895;BME280;64573;50.328;15.014;2022-11-02T07:59:24;99531.41;;;9.24;99.54
75895;BME280;64573;50.328;15.014;2022-11-02T08:01:50;99539.38;;;9.42;98.79
75895;BME280;64573;50.328;15.014;2022-11-02T08:04:15;99540.41;;;9.49;98.88
75895;BME280;64573;50.328;15.014;2022-11-02T08:06:40;99540.94;;;9.27;98.01
75895;BME280;64573;50.328;15.014;2022-11-02T08:09:06;99538.38;;;9.17;97.28
75895;BME280;64573;50.328;15.014;2022-11-02T08:11:31;99548.44;;;9.49;97.16
75895;BME280;64573;50.328;15.014;2022-11-02T08:13:57;99554.81;;;9.56;97.13
75895;BME280;64573;50.328;15.014;2022-11-02T08:16:22;99554.53;;;9.67;95.71
75895;BME280;64573;50.328;15.014;2022-11-02T08:18:48;99554.69;;;9.66;96.17
75895;BME280;64573;50.328;15.014;2022-11-02T08:23:38;99568.44;;;9.71;95.83
75895;BME280;64573;50.328;15.014;2022-11-02T08:26:04;99566.09;;;9.76;94.72
75895;BME280;64573;50.328;15.014;2022-11-02T08:28:31;99563.50;;;9.92;93.20
75895;BME280;64573;50.328;15.014;2022-11-02T08:30:59;99558.16;;;9.92;91.56
75895;BME280;64573;50.328;15.014;2022-11-02T08:33:25;99557.84;;;10.12;91.16
75895;BME280;64573;50.328;15.014;2022-11-02T08:35:51;99563.13;;;10.54;89.35
75895;BME280;64573;50.328;15.014;2022-11-02T08:38:17;99562.47;;;10.68;89.15
75895;BME280;64573;50.328;15.014;2022-11-02T08:40:47;99564.16;;;10.53;88.19
75895;BME280;64573;50.328;15.014;2022-11-02T08:43:13;99566.28;;;10.33;89.49
75895;BME280;64573;50.328;15.014;2022-11-02T08:45:40;99563.53;;;10.09;89.72
75895;BME280;64573;50.328;15.014;2022-11-02T08:48:06;99560.75;;;10.27;90.07
75895;BME280;64573;50.328;15.014;2022-11-02T08:50:33;99546.72;;;10.82;88.23
75895;BME280;64573;50.328;15.014;2022-11-02T08:52:58;99563.38;;;11.96;84.04
75895;BME280;64573;50.328;15.014;2022-11-02T08:55:24;99564.28;;;11.64;84.79
75895;BME280;64573;50.328;15.014;2022-11-02T08:57:51;99568.97;;;11.70;83.16
75895;BME280;64573;50.328;15.014;2022-11-02T09:00:19;99570.34;;;11.58;84.72
75895;BME280;64573;50.328;15.014;2022-11-02T09:03:17;99570.72;;;11.55;83.91
75895;BME280;64573;50.328;15.014;2022-11-02T09:05:44;99567.06;;;11.40;84.01
75895;BME280;64573;50.328;15.014;2022-11-02T09:08:15;99576.44;;;11.44;84.00
75895;BME280;64573;50.328;15.014;2022-11-02T09:10:42;99560.22;;;11.21;83.83
75895;BME280;64573;50.328;15.014;2022-11-02T09:13:11;99580.19;;;11.90;81.38
75895;BME280;64573;50.328;15.014;2022-11-02T09:15:37;99575.19;;;12.87;78.95
75895;BME280;64573;50.328;15.014;2022-11-02T09:18:03;99572.25;;;12.96;77.07
75895;BME280;64573;50.328;15.014;2022-11-02T09:20:29;99570.84;;;13.01;76.51
75895;BME280;64573;50.328;15.014;2022-11-02T09:22:55;99569.38;;;13.50;75.25
75895;BME280;64573;50.328;15.014;2022-11-02T09:25:20;99575.03;;;13.41;75.43
75895;BME280;64573;50.328;15.014;2022-11-02T09:27:45;99552.56;;;13.34;75.10
75895;BME280;64573;50.328;15.014;2022-11-02T09:30:12;99565.25;;;13.40;75.32
75895;BME280;64573;50.328;15.014;2022-11-02T09:32:38;99565.53;;;13.45;74.78
75895;BME280;64573;50.328;15.014;2022-11-02T09:35:07;99567.13;;;13.39;74.62
75895;BME280;64573;50.328;15.014;2022-11-02T09:37:34;99577.91;;;13.54;75.86
75895;BME280;64573;50.328;15.014;2022-11-02T09:39:59;99580.16;;;13.65;74.50
75895;BME280;64573;50.328;15.014;2022-11-02T09:42:41;99579.66;;;13.47;76.38
75895;BME280;64573;50.328;15.014;2022-11-02T09:45:15;99582.72;;;13.29;77.21
75895;BME280;64573;50.328;15.014;2022-11-02T09:47:47;99585.72;;;13.64;75.50
75895;BME280;64573;50.328;15.014;2022-11-02T09:52:52;99585.81;;;13.70;76.61
75895;BME280;64573;50.328;15.014;2022-11-02T09:55:25;99587.00;;;13.83;74.98
75895;BME280;64573;50.328;15.014;2022-11-02T09:57:58;99574.09;;;13.11;78.15
75895;BME280;64573;50.328;15.014;2022-11-02T10:00:29;99581.91;;;13.58;77.35
75895;BME280;64573;50.328;15.014;2022-11-02T10:03:08;99577.25;;;13.67;76.30
75895;BME280;64573;50.328;15.014;2022-11-02T10:05:55;99566.47;;;15.25;71.98
75895;BME280;64573;50.328;15.014;2022-11-02T10:11:24;99554.03;;;15.58;68.55
75895;BME280;64573;50.328;15.014;2022-11-02T10:19:16;99566.63;;;14.46;71.77
75895;BME280;64573;50.328;15.014;2022-11-02T10:21:46;99550.53;;;14.38;69.95
75895;BME280;64573;50.328;15.014;2022-11-02T10:26:40;99555.75;;;15.66;68.13
75895;BME280;64573;50.328;15.014;2022-11-02T10:29:29;99558.56;;;14.95;69.42
75895;BME280;64573;50.328;15.014;2022-11-02T10:31:58;99547.44;;;15.67;65.25
75895;BME280;64573;50.328;15.014;2022-11-02T10:34:24;99544.78;;;15.74;64.73
75895;BME280;64573;50.328;15.014;2022-11-02T10:50:46;99535.00;;;16.34;59.65
75895;BME280;64573;50.328;15.014;2022-11-02T10:53:14;99534.91;;;16.08;60.28
75895;BME280;64573;50.328;15.014;2022-11-02T10:58:12;99526.84;;;16.21;60.96
75895;BME280;64573;50.328;15.014;2022-11-02T11:00:40;99530.88;;;16.51;59.82
75895;BME280;64573;50.328;15.014;2022-11-02T11:03:11;99530.88;;;16.65;58.19
75895;BME280;64573;50.328;15.014;2022-11-02T11:05:57;99524.69;;;15.96;58.73
75895;BME280;64573;50.328;15.014;2022-11-02T11:11:17;99526.75;;;14.69;63.36
75895;BME280;64573;50.328;15.014;2022-11-02T11:13:51;99542.78;;;14.99;63.99
75895;BME280;64573;50.328;15.014;2022-11-02T11:16:18;99541.78;;;14.50;66.82
75895;BME280;64573;50.328;15.014;2022-11-02T11:18:49;99543.25;;;14.17;64.32
75895;BME280;64573;50.328;15.014;2022-11-02T11:21:15;99538.53;;;14.83;64.09
75895;BME280;64573;50.328;15.014;2022-11-02T11:23:42;99546.34;;;14.35;65.61
75895;BME280;64573;50.328;15.014;2022-11-02T11:28:56;99530.25;;;14.42;66.40
75895;BME280;64573;50.328;15.014;2022-11-02T11:31:23;99529.41;;;14.62;64.91
75895;BME280;64573;50.328;15.014;2022-11-02T11:33:55;99520.31;;;14.64;65.49
75895;BME280;64573;50.328;15.014;2022-11-02T11:38:47;99535.19;;;14.59;66.29
75895;BME280;64573;50.328;15.014;2022-11-02T11:41:15;99517.06;;;14.75;66.29
75895;BME280;64573;50.328;15.014;2022-11-02T11:43:41;99524.19;;;14.40;66.26
75895;BME280;64573;50.328;15.014;2022-11-02T11:54:15;99518.00;;;14.88;65.05
75895;BME280;64573;50.328;15.014;2022-11-02T11:56:41;99515.41;;;15.64;63.37
75895;BME280;64573;50.328;15.014;2022-11-02T12:02:00;99512.50;;;14.54;67.86
75895;BME280;64573;50.328;15.014;2022-11-02T12:04:35;99516.34;;;14.23;68.21
75895;BME280;64573;50.328;15.014;2022-11-02T12:15:24;99504.13;;;14.06;68.17
75895;BME280;64573;50.328;15.014;2022-11-02T12:21:06;99509.91;;;14.24;69.74
75895;BME280;64573;50.328;15.014;2022-11-02T12:29:15;99512.25;;;14.27;67.89
75895;BME280;64573;50.328;15.014;2022-11-02T12:31:47;99498.16;;;14.75;65.81
75895;BME280;64573;50.328;15.014;2022-11-02T12:37:18;99499.25;;;15.50;63.26
75895;BME280;64573;50.328;15.014;2022-11-02T12:42:41;99490.38;;;14.86;65.25
75895;BME280;64573;50.328;15.014;2022-11-02T12:47:55;99495.94;;;14.35;67.77
75895;BME280;64573;50.328;15.014;2022-11-02T12:53:07;99484.38;;;14.63;66.85
75895;BME280;64573;50.328;15.014;2022-11-02T12:55:43;99482.75;;;14.47;67.32
75895;BME280;64573;50.328;15.014;2022-11-02T12:58:16;99474.56;;;14.19;66.82
75895;BME280;64573;50.328;15.014;2022-11-02T13:00:45;99482.31;;;14.22;68.17
75895;BME280;64573;50.328;15.014;2022-11-02T13:05:52;99484.69;;;14.53;66.44
75895;BME280;64573;50.328;15.014;2022-11-02T13:08:28;99482.75;;;14.47;66.64
75895;BME280;64573;50.328;15.014;2022-11-02T13:10:59;99476.38;;;14.55;67.53
75895;BME280;64573;50.328;15.014;2022-11-02T13:13:35;99478.47;;;14.53;65.19
75895;BME280;64573;50.328;15.014;2022-11-02T13:16:03;99482.44;;;14.35;67.43
75895;BME280;64573;50.328;15.014;2022-11-02T13:21:01;99486.53;;;14.74;67.17
75895;BME280;64573;50.328;15.014;2022-11-02T13:23:37;99491.06;;;14.46;69.35
75895;BME280;64573;50.328;15.014;2022-11-02T13:26:27;99479.47;;;14.30;68.10
75895;BME280;64573;50.328;15.014;2022-11-02T13:28:58;99478.28;;;14.82;66.97
75895;BME280;64573;50.328;15.014;2022-11-02T13:31:33;99475.16;;;15.07;64.70
75895;BME280;64573;50.328;15.014;2022-11-02T13:34:03;99474.56;;;15.18;64.76
75895;BME280;64573;50.328;15.014;2022-11-02T13:36:30;99475.81;;;15.50;64.49
75895;BME280;64573;50.328;15.014;2022-11-02T13:47:43;99466.75;;;14.24;66.10
75895;BME280;64573;50.328;15.014;2022-11-02T13:49:59;99486.31;;;14.12;67.33
75895;BME280;64573;50.328;15.014;2022-11-02T13:55:00;99466.19;;;14.07;67.68
75895;BME280;64573;50.328;15.014;2022-11-02T13:57:41;99485.22;;;13.85;68.23
75895;BME280;64573;50.328;15.014;2022-11-02T14:02:51;99493.91;;;13.65;69.46
75895;BME280;64573;50.328;15.014;2022-11-02T14:05:27;99496.38;;;13.82;68.70
75895;BME280;64573;50.328;15.014;2022-11-02T14:07:53;99495.22;;;13.55;69.89
75895;BME280;64573;50.328;15.014;2022-11-02T14:10:20;99496.13;;;13.47;69.97
75895;BME280;64573;50.328;15.014;2022-11-02T14:12:48;99486.22;;;13.33;69.50
75895;BME280;64573;50.328;15.014;2022-11-02T14:22:35;99491.59;;;13.98;66.74
75895;BME280;64573;50.328;15.014;2022-11-02T14:25:09;99491.66;;;13.84;67.03
75895;BME280;64573;50.328;15.014;2022-11-02T14:27:33;99492.22;;;13.64;66.30
75895;BME280;64573;50.328;15.014;2022-11-02T14:29:58;99508.63;;;13.48;67.80
75895;BME280;64573;50.328;15.014;2022-11-02T14:32:40;99495.88;;;13.42;69.43
75895;BME280;64573;50.328;15.014;2022-11-02T14:35:28;99497.16;;;13.31;68.64
75895;BME280;64573;50.328;15.014;2022-11-02T14:48:17;99492.97;;;13.14;68.08
75895;BME280;64573;50.328;15.014;2022-11-02T14:53:18;99492.56;;;13.91;65.95
75895;BME280;64573;50.328;15.014;2022-11-02T14:55:54;99501.84;;;13.88;65.08
75895;BME280;64573;50.328;15.014;2022-11-02T14:58:32;99490.06;;;13.74;64.48
75895;BME280;64573;50.328;15.014;2022-11-02T15:01:01;99493.22;;;13.78;65.57
75895;BME280;64573;50.328;15.014;2022-11-02T15:08:29;99499.00;;;13.16;67.53
75895;BME280;64573;50.328;15.014;2022-11-02T15:10:56;99497.75;;;12.89;68.03
75895;BME280;64573;50.328;15.014;2022-11-02T15:13:31;99495.19;;;12.58;68.98
75895;BME280;64573;50.328;15.014;2022-11-02T15:23:43;99507.50;;;11.83;72.45
75895;BME280;64573;50.328;15.014;2022-11-02T15:26:17;99501.94;;;11.85;71.24
75895;BME280;64573;50.328;15.014;2022-11-02T15:28:45;99503.81;;;11.76;71.26
75895;BME280;64573;50.328;15.014;2022-11-02T15:31:20;99509.41;;;11.58;72.31
75895;BME280;64573;50.328;15.014;2022-11-02T15:33:52;99515.50;;;11.52;72.19
75895;BME280;64573;50.328;15.014;2022-11-02T15:36:26;99504.53;;;11.23;74.07
75895;BME280;64573;50.328;15.014;2022-11-02T15:38:52;99499.72;;;11.02;74.66
75895;BME280;64573;50.328;15.014;2022-11-02T15:47:05;99507.31;;;10.74;75.22
75895;BME280;64573;50.328;15.014;2022-11-02T15:53:13;99510.66;;;10.35;76.27
75895;BME280;64573;50.328;15.014;2022-11-02T16:03:36;99513.44;;;10.01;77.50
75895;BME280;64573;50.328;15.014;2022-11-02T16:06:01;99508.75;;;10.03;77.13
75895;BME280;64573;50.328;15.014;2022-11-02T16:08:32;99512.09;;;9.97;77.53
75895;BME280;64573;50.328;15.014;2022-11-02T16:11:09;99520.25;;;9.79;78.19
75895;BME280;64573;50.328;15.014;2022-11-02T16:13:37;99515.97;;;9.52;79.40
75895;BME280;64573;50.328;15.014;2022-11-02T16:16:07;99518.25;;;9.39;80.27
75895;BME280;64573;50.328;15.014;2022-11-02T16:21:00;99529.50;;;9.17;81.28
75895;BME280;64573;50.328;15.014;2022-11-02T16:23:29;99527.31;;;9.12;80.94
75895;BME280;64573;50.328;15.014;2022-11-02T16:25:57;99522.91;;;9.03;81.75
75895;BME280;64573;50.328;15.014;2022-11-02T16:28:33;99525.94;;;8.82;82.62
75895;BME280;64573;50.328;15.014;2022-11-02T16:33:50;99533.41;;;8.52;83.59
75895;BME280;64573;50.328;15.014;2022-11-02T16:36:25;99539.84;;;8.42;84.86
75895;BME280;64573;50.328;15.014;2022-11-02T16:39:01;99539.75;;;8.34;84.92
75895;BME280;64573;50.328;15.014;2022-11-02T16:41:34;99541.41;;;8.17;84.87
75895;BME280;64573;50.328;15.014;2022-11-02T16:44:06;99551.50;;;8.05;85.73
75895;BME280;64573;50.328;15.014;2022-11-02T16:46:41;99548.44;;;8.00;86.09
75895;BME280;64573;50.328;15.014;2022-11-02T16:51:36;99561.97;;;7.89;86.61
75895;BME280;64573;50.328;15.014;2022-11-02T16:56:57;99552.00;;;7.63;87.08
75895;BME280;64573;50.328;15.014;2022-11-02T17:01:58;99574.38;;;7.25;89.44
75895;BME280;64573;50.328;15.014;2022-11-02T17:06:53;99576.06;;;7.26;89.96
75895;BME280;64573;50.328;15.014;2022-11-02T17:09:23;99581.28;;;7.18;90.75